Terminal Aerodrome Forecast
Issued by NWS

Home | Current Version | Previous Version | Text Only | Print | Product List | Glossary Off
Versions: 1 2 3 4 5 6 7 8 9 10 11 12 13 14 15 16 17 18

000
FTUS43 KBIS 271700 AAB
TAFDIK
TAF AMD
KDIK 271707Z 2717/2812 29008KT P6SM BKN025
     FM272100 36009KT P6SM SCT025
     FM280600 15005KT P6SM SCT050=

USA.gov is the U.S. government's official web portal to all federal, state and local government web resources and services.